Time;durP1;ratioP1;P1;durP2;ratioP2;P2;SDS_P1;SDS_P2;PMS_P1;PMS_P2;Temp;Humidity;BMP_temperature;BMP_pressure;BME280_temperature;BME280_humidity;BME280_pressure;Samples;Min_cycle;Max_cycle;Signal;HPM_P1;HPM_P2
2022/05/17 00:01:15;;;;;;;;;;;;;;;21.59;56.89;101647.91;7285201;19;151542;-61
2022/05/17 00:03:41;;;;;;;;;;;;;;;21.59;57.30;101644.25;7291747;19;153237;-61
2022/05/17 00:06:18;;;;;;;;;;;;;;;21.59;57.53;101642.28;7282514;19;151751;-61
2022/05/17 00:08:45;;;;;;;;;;;;;;;21.58;57.69;101651.84;7283223;19;153718;-61
2022/05/17 00:11:11;;;;;;;;;;;;;;;21.59;57.40;101652.69;7281798;19;153862;-61
2022/05/17 00:13:38;;;;;;;;;;;;;;;21.58;58.04;101649.03;7284448;19;152147;-61
2022/05/17 00:16:06;;;;;;;;;;;;;;;21.60;58.15;101651.56;7284512;19;153388;-62
2022/05/17 00:18:38;;;;;;;;;;;;;;;21.58;58.06;101646.22;7283300;19;153071;-61
2022/05/17 00:21:05;;;;;;;;;;;;;;;21.58;57.87;101651.84;7284294;19;151843;-61
2022/05/17 00:23:32;;;;;;;;;;;;;;;21.60;58.00;101649.59;7283454;19;152380;-61
2022/05/17 00:26:16;;;;;;;;;;;;;;;21.56;58.48;101642.91;7291589;19;153504;-62
2022/05/17 00:28:44;;;;;;;;;;;;;;;21.58;59.11;101645.38;7283843;19;153182;-61
2022/05/17 00:31:11;;;;;;;;;;;;;;;21.59;58.85;101645.09;7281769;19;153377;-62
2022/05/17 00:33:37;;;;;;;;;;;;;;;21.60;58.99;101645.94;7283004;19;151905;-61
2022/05/17 00:36:11;;;;;;;;;;;;;;;21.59;59.13;101644.25;7284221;19;153912;-60
2022/05/17 00:38:48;;;;;;;;;;;;;;;21.60;59.05;101645.94;7282358;19;153513;-61
2022/05/17 00:41:15;;;;;;;;;;;;;;;21.60;59.14;101643.97;7284299;19;151620;-60
2022/05/17 00:46:50;;;;;;;;;;;;;;;21.61;59.20;101645.66;7282942;19;153327;-60
2022/05/17 00:49:23;;;;;;;;;;;;;;;21.64;59.61;101644.19;7289002;19;151888;-60
2022/05/17 00:51:50;;;;;;;;;;;;;;;21.65;59.67;101641.09;7280181;19;153310;-60
2022/05/17 00:54:18;;;;;;;;;;;;;;;21.64;59.56;101647.84;7284165;19;151511;-60
2022/05/17 00:56:49;;;;;;;;;;;;;;;21.66;59.61;101644.75;7283159;19;152651;-61
2022/05/17 00:59:16;;;;;;;;;;;;;;;21.65;59.75;101645.88;7281647;19;153211;-60
2022/05/17 01:01:43;;;;;;;;;;;;;;;21.66;59.77;101645.59;7281619;19;152407;-60
2022/05/17 01:04:12;;;;;;;;;;;;;;;21.65;59.50;101649.53;7282654;19;152677;-61
2022/05/17 01:06:42;;;;;;;;;;;;;;;21.69;59.34;101644.16;7281769;19;153308;-61
2022/05/17 01:09:15;;;;;;;;;;;;;;;21.64;59.57;101638.56;7289568;19;151864;-61
2022/05/17 01:11:42;;;;;;;;;;;;;;;21.64;59.66;101641.38;7280182;19;154226;-61
2022/05/17 01:16:54;;;;;;;;;;;;;;;21.66;59.66;101634.34;7282769;19;152672;-61
2022/05/17 01:19:21;;;;;;;;;;;;;;;21.66;59.14;101645.59;7286625;19;154425;-62
2022/05/17 01:21:48;;;;;;;;;;;;;;;21.66;59.54;101636.31;7289787;19;151623;-62
2022/05/17 01:24:14;;;;;;;;;;;;;;;21.66;59.56;101636.31;7289961;19;153110;-61
2022/05/17 01:26:43;;;;;;;;;;;;;;;21.66;59.59;101644.75;7288360;19;153235;-61
2022/05/17 01:29:13;;;;;;;;;;;;;;;21.64;59.69;101636.59;7289451;19;151809;-61
2022/05/17 01:31:40;;;;;;;;;;;;;;;21.64;59.24;101638.56;7295336;19;152989;-60
2022/05/17 01:34:10;;;;;;;;;;;;;;;21.68;59.57;101637.69;7289617;19;151991;-60
2022/05/17 01:36:37;;;;;;;;;;;;;;;21.67;59.07;101635.16;7287186;19;153531;-61
2022/05/17 01:39:04;;;;;;;;;;;;;;;21.68;59.24;101626.44;7286899;19;153043;-61
2022/05/17 01:41:31;;;;;;;;;;;;;;;21.68;59.66;101632.06;7288886;19;151761;-61
2022/05/17 01:43:59;;;;;;;;;;;;;;;21.67;59.16;101633.19;7288473;19;153546;-60
2022/05/17 01:46:27;;;;;;;;;;;;;;;21.68;59.77;101626.44;7287833;19;153220;-60
2022/05/17 01:48:54;;;;;;;;;;;;;;;21.68;59.50;101625.59;7288819;19;152375;-60
2022/05/17 01:51:21;;;;;;;;;;;;;;;21.67;59.52;101633.19;7287096;19;153606;-60
2022/05/17 01:53:47;;;;;;;;;;;;;;;21.65;59.41;101620.56;7294852;19;154090;-61
2022/05/17 01:56:21;;;;;;;;;;;;;;;21.67;59.68;101629.53;7288227;19;153328;-61
2022/05/17 01:58:47;;;;;;;;;;;;;;;21.67;59.82;101630.38;7283983;19;155844;-63
2022/05/17 02:01:14;;;;;;;;;;;;;;;21.67;59.76;101623.91;7288144;19;152004;-61
2022/05/17 02:03:41;;;;;;;;;;;;;;;21.66;59.67;101620.28;7288196;19;153607;-60
2022/05/17 02:06:15;;;;;;;;;;;;;;;21.71;60.06;101613.75;7288039;19;155695;-61
2022/05/17 02:08:51;;;;;;;;;;;;;;;21.67;59.83;101621.09;7287721;19;152199;-61
2022/05/17 02:11:18;;;;;;;;;;;;;;;21.68;60.46;101620.81;7287466;19;152652;-60
2022/05/17 02:13:44;;;;;;;;;;;;;;;21.68;60.13;101619.97;7288268;19;153214;-61
2022/05/17 02:16:20;;;;;;;;;;;;;;;21.65;60.44;101614.94;7295172;19;151556;-60
2022/05/17 02:18:47;;;;;;;;;;;;;;;21.68;59.98;101611.53;7287942;19;154458;-61
2022/05/17 02:21:14;;;;;;;;;;;;;;;21.67;59.85;101615.47;7287767;19;151916;-61
2022/05/17 02:23:41;;;;;;;;;;;;;;;21.66;60.16;101613.81;7288069;19;153338;-61
2022/05/17 02:26:20;;;;;;;;;;;;;;;21.66;59.93;101605.38;7285844;19;154096;-61
2022/05/17 02:28:52;;;;;;;;;;;;;;;21.66;59.80;101613.81;7287466;19;151879;-61
2022/05/17 02:31:19;;;;;;;;;;;;;;;21.66;60.09;101617.47;7285733;19;153168;-61
2022/05/17 02:33:46;;;;;;;;;;;;;;;21.64;60.38;101613.25;7287134;19;153816;-60
2022/05/17 02:36:21;;;;;;;;;;;;;;;21.65;60.54;101618.59;7287519;19;152058;-60
2022/05/17 02:38:49;;;;;;;;;;;;;;;21.63;60.25;101617.22;7294992;19;152634;-60
2022/05/17 02:41:18;;;;;;;;;;;;;;;21.62;60.12;101610.75;7287356;19;151740;-60
2022/05/17 02:43:46;;;;;;;;;;;;;;;21.65;60.08;101609.31;7288672;19;152594;-60
2022/05/17 02:46:25;;;;;;;;;;;;;;;21.65;60.14;101617.75;7286525;19;153635;-60
2022/05/17 02:48:51;;;;;;;;;;;;;;;21.65;60.46;101612.97;7288794;19;151941;-60
2022/05/17 02:51:18;;;;;;;;;;;;;;;21.64;60.56;101613.25;7285759;19;153273;-61
2022/05/17 02:53:45;;;;;;;;;;;;;;;21.63;60.68;101618.06;7285393;19;154385;-61
2022/05/17 02:56:20;;;;;;;;;;;;;;;21.63;60.73;101618.06;7287380;19;151790;-60
2022/05/17 02:58:46;;;;;;;;;;;;;;;21.64;60.14;101616.06;7281633;19;154383;-61
2022/05/17 03:01:13;;;;;;;;;;;;;;;21.63;60.42;101617.22;7292698;19;153369;-61
2022/05/17 03:03:41;;;;;;;;;;;;;;;21.63;60.63;101612.44;7286940;19;152769;-61
2022/05/17 03:06:21;;;;;;;;;;;;;;;21.62;60.51;101610.75;7285344;19;154070;-61
2022/05/17 03:08:51;;;;;;;;;;;;;;;21.63;60.46;101615.22;7285541;19;151888;-62
2022/05/17 03:11:18;;;;;;;;;;;;;;;21.62;60.51;101610.75;7285488;19;153831;-62
2022/05/17 03:13:45;;;;;;;;;;;;;;;21.63;60.82;101614.41;7283120;19;152381;-61
2022/05/17 03:16:12;;;;;;;;;;;;;;;21.67;60.54;101612.66;7285739;19;151740;-62
2022/05/17 03:18:40;;;;;;;;;;;;;;;21.55;59.17;101610.28;7284597;19;153704;-60
2022/05/17 03:21:07;;;;;;;;;;;;;;;21.61;59.12;101613.88;7292357;19;154268;-60
2022/05/17 03:23:34;;;;;;;;;;;;;;;21.59;59.56;101614.16;7286349;19;153521;-61
2022/05/17 03:26:01;;;;;;;;;;;;;;;21.61;59.71;101605.44;7285099;19;154071;-61
2022/05/17 03:28:28;;;;;;;;;;;;;;;21.58;59.53;101609.66;7286639;19;151779;-61
2022/05/17 03:30:55;;;;;;;;;;;;;;;21.55;59.88;101610.28;7286567;19;152659;-61
2022/05/17 03:33:22;;;;;;;;;;;;;;;21.58;59.62;101609.66;7281117;19;154407;-61
2022/05/17 03:35:48;;;;;;;;;;;;;;;21.56;59.62;101606.34;7284425;19;151702;-61
2022/05/17 03:38:15;;;;;;;;;;;;;;;21.59;59.69;101616.13;7285291;19;153444;-60
2022/05/17 03:40:41;;;;;;;;;;;;;;;21.58;60.02;101618.09;7283111;19;151902;-60
2022/05/17 03:43:08;;;;;;;;;;;;;;;21.55;60.04;101613.09;7289965;19;152469;-61
2022/05/17 03:45:35;;;;;;;;;;;;;;;21.54;59.66;101611.41;7285510;19;152526;-60
2022/05/17 03:48:02;;;;;;;;;;;;;;;21.54;60.16;101613.38;7285899;19;151740;-61
2022/05/17 03:50:30;;;;;;;;;;;;;;;21.55;59.74;101613.09;7285722;19;152751;-60
2022/05/17 03:52:59;;;;;;;;;;;;;;;21.56;60.14;101606.34;7281058;19;153547;-61
2022/05/17 03:55:26;;;;;;;;;;;;;;;21.54;59.93;101608.59;7284589;19;151744;-60
2022/05/17 03:57:53;;;;;;;;;;;;;;;21.54;60.02;101614.22;7282229;19;151791;-60
2022/05/17 04:00:20;;;;;;;;;;;;;;;21.56;59.76;101616.75;7282549;19;152369;-60
2022/05/17 04:02:47;;;;;;;;;;;;;;;21.54;59.74;101617.03;7285925;19;151529;-61
2022/05/17 04:05:15;;;;;;;;;;;;;;;21.52;59.98;101613.69;7293302;19;152620;-60
2022/05/17 04:07:42;;;;;;;;;;;;;;;21.53;60.14;101615.34;7284083;19;151620;-61
2022/05/17 04:10:10;;;;;;;;;;;;;;;21.51;59.99;101608.38;7286455;19;153334;-60
2022/05/17 04:12:37;;;;;;;;;;;;;;;21.50;60.01;101618.78;7283226;19;154675;-60
2022/05/17 04:15:06;;;;;;;;;;;;;;;21.52;59.91;101612.84;7282856;19;152768;-60
2022/05/17 04:17:33;;;;;;;;;;;;;;;21.52;59.90;101612.84;7284233;19;153479;-60
2022/05/17 04:20:00;;;;;;;;;;;;;;;21.52;59.80;101618.47;7281585;19;151750;-60
2022/05/17 04:22:26;;;;;;;;;;;;;;;21.51;60.07;101619.63;7283023;19;151811;-60
2022/05/17 04:24:54;;;;;;;;;;;;;;;21.50;60.37;101612.31;7286692;19;152852;-60
2022/05/17 04:27:22;;;;;;;;;;;;;;;21.51;60.28;101614.00;7289470;19;154405;-60
2022/05/17 04:29:49;;;;;;;;;;;;;;;21.51;60.43;101614.00;7285990;19;152817;-60
2022/05/17 04:32:16;;;;;;;;;;;;;;;21.53;59.91;101618.16;7282845;19;153438;-60
2022/05/17 04:34:43;;;;;;;;;;;;;;;21.51;60.17;101619.63;7283379;19;151841;-60
2022/05/17 04:37:10;;;;;;;;;;;;;;;21.50;60.47;101627.19;7285105;19;153011;-60
2022/05/17 04:39:37;;;;;;;;;;;;;;;21.51;60.47;101617.63;7283395;19;154134;-61
2022/05/17 04:42:03;;;;;;;;;;;;;;;21.50;60.35;101626.38;7283111;19;152124;-60
2022/05/17 04:44:30;;;;;;;;;;;;;;;21.50;60.42;101627.19;7283877;19;153316;-61
2022/05/17 04:46:57;;;;;;;;;;;;;;;21.51;60.54;101623.25;7281380;19;154486;-60
2022/05/17 04:49:24;;;;;;;;;;;;;;;21.53;60.56;101622.97;7292855;19;151855;-61
2022/05/17 04:51:52;;;;;;;;;;;;;;;21.52;60.49;101627.75;7282597;19;153280;-61
2022/05/17 04:54:19;;;;;;;;;;;;;;;21.51;61.07;101630.84;7291331;19;151679;-61
2022/05/17 04:56:46;;;;;;;;;;;;;;;21.51;60.72;101616.81;7289830;19;153209;-61
2022/05/17 04:59:13;;;;;;;;;;;;;;;21.53;60.66;101614.53;7288007;19;154403;-60
2022/05/17 05:01:40;;;;;;;;;;;;;;;21.50;61.06;101620.75;7290170;19;151722;-60
2022/05/17 05:04:07;;;;;;;;;;;;;;;21.49;61.21;101617.09;7291800;19;152839;-61
2022/05/17 05:06:34;;;;;;;;;;;;;;;21.49;61.32;101617.09;7289791;19;153312;-61
2022/05/17 05:09:01;;;;;;;;;;;;;;;21.49;61.46;101622.72;7289147;19;151558;-61
2022/05/17 05:11:28;;;;;;;;;;;;;;;21.49;61.21;101614.28;7296869;19;152664;-61
2022/05/17 05:13:55;;;;;;;;;;;;;;;21.50;61.53;101623.56;7289019;19;151653;-60
2022/05/17 05:16:22;;;;;;;;;;;;;;;21.51;61.52;101619.63;7290913;19;153318;-61
2022/05/17 05:18:49;;;;;;;;;;;;;;;21.48;61.96;101629.50;7290032;19;153450;-61
2022/05/17 05:21:16;;;;;;;;;;;;;;;21.49;61.83;101624.69;7289686;19;151770;-61
2022/05/17 05:23:43;;;;;;;;;;;;;;;21.49;61.66;101625.53;7289144;19;152935;-61
2022/05/17 05:26:11;;;;;;;;;;;;;;;21.51;61.68;101633.66;7289075;19;154304;-61
2022/05/17 05:28:38;;;;;;;;;;;;;;;21.48;61.71;101628.66;7287072;19;151828;-61
2022/05/17 05:31:06;;;;;;;;;;;;;;;21.47;61.91;101630.63;7296153;19;152906;-61
2022/05/17 05:33:34;;;;;;;;;;;;;;;21.47;61.49;101626.97;7287252;19;151646;-61
2022/05/17 05:36:01;;;;;;;;;;;;;;;21.47;61.70;101624.16;7290188;19;154072;-61
2022/05/17 05:38:28;;;;;;;;;;;;;;;21.45;61.57;101621.63;7289488;19;153492;-61
2022/05/17 05:40:55;;;;;;;;;;;;;;;21.47;61.68;101635.41;7289484;19;151699;-61
2022/05/17 05:43:23;;;;;;;;;;;;;;;21.47;61.80;101632.59;7288800;19;152841;-62
2022/05/17 05:45:50;;;;;;;;;;;;;;;21.46;61.57;101636.53;7285089;19;152080;-61
2022/05/17 05:48:17;;;;;;;;;;;;;;;21.46;61.71;101642.16;7287498;19;151618;-61
2022/05/17 05:50:44;;;;;;;;;;;;;;;21.45;61.98;101632.88;7290494;19;152732;-61
2022/05/17 05:53:12;;;;;;;;;;;;;;;21.46;61.61;101639.34;7294824;19;153423;-61
2022/05/17 05:55:40;;;;;;;;;;;;;;;21.45;62.14;101640.47;7290054;19;153802;-61
2022/05/17 05:58:08;;;;;;;;;;;;;;;21.45;62.36;101641.31;7284914;19;153534;-60
2022/05/17 06:00:35;;;;;;;;;;;;;;;21.49;61.63;101644.38;7287621;19;152136;-60
2022/05/17 06:03:03;;;;;;;;;;;;;;;21.47;62.01;101652.28;7284126;19;151871;-60
2022/05/17 06:05:30;;;;;;;;;;;;;;;21.45;62.20;101646.09;7286674;19;153336;-60
2022/05/17 06:07:58;;;;;;;;;;;;;;;21.49;62.32;101648.00;7286249;19;152278;-61
2022/05/17 06:10:25;;;;;;;;;;;;;;;21.55;62.65;101646.00;7289458;19;152933;-60
2022/05/17 06:12:52;;;;;;;;;;;;;;;21.60;62.51;101645.94;7286304;19;154070;-60
2022/05/17 06:15:19;;;;;;;;;;;;;;;21.60;62.09;101643.97;7297322;19;152420;-60
2022/05/17 06:17:47;;;;;;;;;;;;;;;21.60;62.70;101663.66;7287703;19;151805;-63
2022/05/17 06:20:16;;;;;;;;;;;;;;;21.57;60.34;101654.97;7286362;19;152186;-61
2022/05/17 06:22:43;;;;;;;;;;;;;;;21.42;58.32;101653.16;7286930;19;152505;-61
2022/05/17 06:25:11;;;;;;;;;;;;;;;21.42;58.09;101653.16;7286926;19;153632;-60
2022/05/17 06:27:39;;;;;;;;;;;;;;;21.44;59.98;101653.69;7286817;19;152091;-60
2022/05/17 06:30:07;;;;;;;;;;;;;;;21.49;60.45;101658.41;7288382;19;152495;-59
2022/05/17 06:32:34;;;;;;;;;;;;;;;21.50;60.10;101654.47;7287066;19;153614;-59
2022/05/17 06:35:01;;;;;;;;;;;;;;;21.51;59.75;101661.78;7286638;19;151798;-59
2022/05/17 06:37:28;;;;;;;;;;;;;;;21.51;59.91;101668.25;7295109;19;153618;-58
2022/05/17 06:39:55;;;;;;;;;;;;;;;21.47;60.19;101667.19;7287084;19;151612;-58
2022/05/17 06:42:22;;;;;;;;;;;;;;;21.47;60.03;101661.56;7288456;19;153625;-59
2022/05/17 06:44:50;;;;;;;;;;;;;;;21.49;60.09;101664.03;7286352;19;155077;-61
2022/05/17 06:47:18;;;;;;;;;;;;;;;21.52;59.84;101669.09;7288175;19;151517;-62
2022/05/17 06:49:45;;;;;;;;;;;;;;;21.49;59.67;101661.22;7285817;19;153765;-62
2022/05/17 06:52:12;;;;;;;;;;;;;;;21.45;58.96;101663.81;7258398;19;156495;-62
2022/05/17 06:54:40;;;;;;;;;;;;;;;21.47;58.69;101657.91;7281584;19;152125;-62
2022/05/17 06:57:10;;;;;;;;;;;;;;;21.46;58.52;101673.94;7286810;19;153460;-62
2022/05/17 06:59:39;;;;;;;;;;;;;;;21.46;58.71;101668.31;7294275;19;154318;-62
2022/05/17 07:02:08;;;;;;;;;;;;;;;21.45;58.45;101672.25;7285395;19;151681;-62
2022/05/17 07:04:35;;;;;;;;;;;;;;;21.46;57.82;101671.13;7283989;19;153272;-62
2022/05/17 07:07:02;;;;;;;;;;;;;;;21.49;58.00;101661.22;7283203;19;152156;-62
2022/05/17 07:09:30;;;;;;;;;;;;;;;21.49;57.65;101662.06;7286184;19;153288;-62
2022/05/17 07:14:30;;;;;;;;;;;;;;;21.46;57.26;101661.84;7283816;19;151739;-62
2022/05/17 07:16:57;;;;;;;;;;;;;;;21.45;57.27;101666.63;7286253;19;153090;-60
2022/05/17 07:19:24;;;;;;;;;;;;;;;21.31;55.73;101676.88;7283110;19;152094;-69
2022/05/17 07:21:51;;;;;;;;;;;;;;;21.33;56.12;101673.78;7289363;19;151557;-60
2022/05/17 07:24:19;;;;;;;;;;;;;;;21.35;56.93;101669.53;7284114;19;154441;-61
2022/05/17 07:26:46;;;;;;;;;;;;;;;21.41;56.91;101673.13;7286745;19;151550;-62
2022/05/17 07:29:33;;;;;;;;;;;;;;;21.44;57.00;101678.19;7284913;19;154473;-61
2022/05/17 07:31:59;;;;;;;;;;;;;;;21.42;57.10;101674.81;7284331;19;152292;-61
2022/05/17 07:34:27;;;;;;;;;;;;;;;21.42;56.67;101675.66;7280223;19;151875;-62
2022/05/17 07:36:54;;;;;;;;;;;;;;;21.42;57.07;101680.44;7285937;19;154252;-62
2022/05/17 07:39:20;;;;;;;;;;;;;;;21.38;56.66;101685.81;7284527;19;152224;-62
2022/05/17 07:41:48;;;;;;;;;;;;;;;21.42;57.00;101691.69;7294547;19;151805;-62
2022/05/17 07:44:15;;;;;;;;;;;;;;;21.40;56.70;101691.13;7282415;19;154245;-61
2022/05/17 07:46:42;;;;;;;;;;;;;;;21.39;56.59;101681.88;7283858;19;151569;-61
2022/05/17 07:49:09;;;;;;;;;;;;;;;21.37;56.35;101680.50;7284575;19;153471;-61
2022/05/17 07:51:36;;;;;;;;;;;;;;;21.36;56.90;101685.28;7283223;19;153924;-62
2022/05/17 07:54:03;;;;;;;;;;;;;;;21.34;56.50;101683.91;7283143;19;151762;-61
2022/05/17 07:56:30;;;;;;;;;;;;;;;21.34;56.64;101675.47;7286289;19;153498;-61
2022/05/17 07:58:57;;;;;;;;;;;;;;;21.33;56.73;101677.44;7283602;19;153390;-61
2022/05/17 08:01:24;;;;;;;;;;;;;;;21.34;56.84;101678.28;7281828;19;152725;-61
2022/05/17 08:03:50;;;;;;;;;;;;;;;21.32;56.64;101678.56;7290091;19;151498;-61
2022/05/17 08:06:18;;;;;;;;;;;;;;;21.31;56.82;101688.13;7285510;19;151854;-61
2022/05/17 08:08:44;;;;;;;;;;;;;;;21.30;56.65;101681.66;7283648;19;151773;-61
2022/05/17 08:11:11;;;;;;;;;;;;;;;21.30;56.70;101678.03;7280630;19;151937;-61
2022/05/17 08:13:38;;;;;;;;;;;;;;;21.28;56.83;101680.28;7284311;19;151922;-62
2022/05/17 08:16:26;;;;;;;;;;;;;;;21.29;56.51;101671.56;7283850;19;154574;-61
2022/05/17 08:21:21;;;;;;;;;;;;;;;21.27;56.55;101679.44;7285396;19;152689;-61
2022/05/17 08:23:50;;;;;;;;;;;;;;;21.27;56.50;101675.81;7283429;19;151704;-62
2022/05/17 08:29:10;;;;;;;;;;;;;;;21.26;56.67;101671.31;7283957;19;153103;-62
2022/05/17 08:31:38;;;;;;;;;;;;;;;21.24;56.60;101674.44;7283723;19;152533;-61
2022/05/17 08:34:08;;;;;;;;;;;;;;;21.25;56.28;101678.09;7282823;19;152068;-61
2022/05/17 08:36:35;;;;;;;;;;;;;;;21.26;56.59;101685.34;7285022;19;153475;-61
2022/05/17 08:39:02;;;;;;;;;;;;;;;21.26;56.36;101683.38;7283115;19;153295;-62
2022/05/17 08:41:33;;;;;;;;;;;;;;;21.27;56.14;101681.41;7285002;19;151941;-61
2022/05/17 08:44:02;;;;;;;;;;;;;;;21.25;56.63;101669.66;7282657;19;152429;-61
2022/05/17 08:46:32;;;;;;;;;;;;;;;21.29;56.12;101674.38;7284343;19;154093;-61
2022/05/17 08:48:59;;;;;;;;;;;;;;;21.37;55.67;101664.47;7292682;19;151740;-61
2022/05/17 08:51:30;;;;;;;;;;;;;;;21.34;56.13;101664.22;7280624;19;153504;-61
2022/05/17 08:53:57;;;;;;;;;;;;;;;21.29;56.15;101663.16;7284572;19;152008;-62
2022/05/17 08:56:25;;;;;;;;;;;;;;;21.29;55.92;101660.34;7284872;19;151778;-61
2022/05/17 08:58:55;;;;;;;;;;;;;;;21.32;56.29;101655.22;7280007;19;152290;-61
2022/05/17 09:01:25;;;;;;;;;;;;;;;21.31;55.89;101660.00;7284514;19;152133;-61
2022/05/17 09:03:56;;;;;;;;;;;;;;;21.33;56.02;101656.91;7282709;19;152266;-61
2022/05/17 09:06:23;;;;;;;;;;;;;;;21.34;55.84;101658.59;7281898;19;152684;-61
2022/05/17 09:08:53;;;;;;;;;;;;;;;21.33;56.21;101652.13;7283700;19;151483;-62
2022/05/17 09:11:21;;;;;;;;;;;;;;;21.33;56.16;101654.09;7290705;19;151852;-61
2022/05/17 09:13:51;;;;;;;;;;;;;;;21.45;55.65;101651.72;7281839;19;151850;-61
2022/05/17 09:16:37;;;;;;;;;;;;;;;21.44;55.65;101648.06;7281739;19;152063;-61
2022/05/17 09:19:04;;;;;;;;;;;;;;;21.40;55.73;101654.59;7283946;19;155322;-61
2022/05/17 09:21:34;;;;;;;;;;;;;;;21.39;55.73;101652.94;7282456;19;151454;-62
2022/05/17 09:24:04;;;;;;;;;;;;;;;21.40;55.65;101644.19;7282046;19;153296;-61
2022/05/17 09:26:32;;;;;;;;;;;;;;;21.45;55.66;101652.56;7282092;19;154101;-61
2022/05/17 09:29:02;;;;;;;;;;;;;;;21.49;55.14;101650.81;7284035;19;151565;-62
2022/05/17 09:31:32;;;;;;;;;;;;;;;21.58;55.07;101651.84;7283003;19;153783;-61
2022/05/17 09:34:00;;;;;;;;;;;;;;;21.59;54.98;101649.88;7289109;19;151564;-61
2022/05/17 09:36:32;;;;;;;;;;;;;;;21.54;54.96;101642.34;7282911;19;151707;-61
2022/05/17 09:39:00;;;;;;;;;;;;;;;21.56;55.13;101645.69;7283799;19;153672;-61
2022/05/17 09:41:34;;;;;;;;;;;;;;;21.57;54.84;101638.09;7290279;19;152020;-61
2022/05/17 09:44:01;;;;;;;;;;;;;;;21.52;54.98;101641.81;7289302;19;153501;-61
2022/05/17 09:46:31;;;;;;;;;;;;;;;21.53;55.15;101642.66;7289523;19;153712;-61
2022/05/17 09:54:02;;;;;;;;;;;;;;;21.60;54.73;101629.91;7295257;19;153346;-61
2022/05/17 09:56:38;;;;;;;;;;;;;;;21.64;54.33;101621.69;7287846;19;153504;-62
2022/05/17 09:59:10;;;;;;;;;;;;;;;21.66;54.59;101620.28;7284740;19;152533;-62
2022/05/17 10:01:38;;;;;;;;;;;;;;;21.70;54.23;101626.13;7289503;19;151803;-61
2022/05/17 10:04:09;;;;;;;;;;;;;;;21.76;53.85;101632.53;7289454;19;153377;-61
2022/05/17 10:06:37;;;;;;;;;;;;;;;21.78;53.81;101619.84;7288525;19;153331;-61
2022/05/17 10:09:06;;;;;;;;;;;;;;;21.79;53.66;101618.72;7288566;19;152800;-62
2022/05/17 10:11:36;;;;;;;;;;;;;;;21.81;53.83;101613.59;7287876;19;152667;-61
2022/05/17 10:14:04;;;;;;;;;;;;;;;21.83;53.40;101610.50;7284723;19;152069;-62
2022/05/17 10:16:34;;;;;;;;;;;;;;;21.87;53.31;101617.19;7295644;19;151646;-62
2022/05/17 10:19:05;;;;;;;;;;;;;;;21.88;53.22;101608.47;7287872;19;153682;-61
2022/05/17 10:21:35;;;;;;;;;;;;;;;21.91;53.22;101598.56;7287427;19;151603;-62
2022/05/17 10:24:05;;;;;;;;;;;;;;;21.93;53.26;101607.59;7289271;19;151674;-61
2022/05/17 10:26:47;;;;;;;;;;;;;;;21.95;52.97;101602.47;7286138;19;153568;-61
2022/05/17 10:29:19;;;;;;;;;;;;;;;21.97;52.99;101598.25;7286377;19;151888;-61
2022/05/17 10:31:56;;;;;;;;;;;;;;;22.01;52.90;101587.22;7288360;19;151743;-61
2022/05/17 10:34:26;;;;;;;;;;;;;;;22.03;52.95;101604.66;7286237;19;154107;-61
2022/05/17 10:36:56;;;;;;;;;;;;;;;22.05;52.74;101585.47;7286959;19;151930;-61
2022/05/17 10:39:28;;;;;;;;;;;;;;;22.05;52.88;101586.31;7295046;19;151923;-61
2022/05/17 10:41:55;;;;;;;;;;;;;;;22.08;52.83;101584.84;7288124;19;151779;-61
2022/05/17 10:44:22;;;;;;;;;;;;;;;22.10;52.34;101576.94;7285602;19;152870;-62
2022/05/17 10:46:54;;;;;;;;;;;;;;;22.11;52.81;101573.84;7285898;19;153778;-61
2022/05/17 10:49:20;;;;;;;;;;;;;;;22.15;52.22;101566.47;7285253;19;151684;-61
2022/05/17 10:51:50;;;;;;;;;;;;;;;22.15;52.28;101568.44;7284785;19;153568;-61
2022/05/17 10:54:20;;;;;;;;;;;;;;;22.21;52.14;101558.78;7282902;19;152225;-61
2022/05/17 10:56:51;;;;;;;;;;;;;;;22.21;52.08;101549.50;7287539;19;151699;-60
2022/05/17 10:59:21;;;;;;;;;;;;;;;22.24;52.12;101552.53;7285565;19;152760;-61
2022/05/17 11:01:51;;;;;;;;;;;;;;;22.25;52.46;101539.28;7294620;19;153402;-61
2022/05/17 11:04:22;;;;;;;;;;;;;;;22.29;52.35;101541.19;7285193;19;154905;-61
2022/05/17 11:06:56;;;;;;;;;;;;;;;22.30;51.86;101553.28;7283974;19;154038;-61
2022/05/17 11:09:29;;;;;;;;;;;;;;;22.27;52.35;101535.03;7287293;19;152054;-61
2022/05/17 11:11:56;;;;;;;;;;;;;;;22.29;52.09;101538.38;7287959;19;151697;-61
2022/05/17 11:14:26;;;;;;;;;;;;;;;22.31;52.00;101541.72;7285331;19;154060;-62
2022/05/17 11:17:00;;;;;;;;;;;;;;;22.34;51.94;101541.13;7288235;19;151611;-61
2022/05/17 11:19:31;;;;;;;;;;;;;;;22.33;51.76;101535.78;7287851;19;153377;-61
2022/05/17 11:22:04;;;;;;;;;;;;;;;22.36;52.17;101543.59;7285829;19;153665;-61
2022/05/17 11:24:34;;;;;;;;;;;;;;;22.37;51.69;101540.50;7295851;19;152091;-61
2022/05/17 11:27:06;;;;;;;;;;;;;;;22.38;52.01;101542.16;7285635;19;153579;-61
2022/05/17 11:29:36;;;;;;;;;;;;;;;22.38;52.06;101541.34;7285234;19;151942;-61
2022/05/17 11:32:07;;;;;;;;;;;;;;;22.39;51.80;101538.22;7284613;19;152772;-61
2022/05/17 11:34:35;;;;;;;;;;;;;;;22.38;51.72;101532.88;7285581;19;154082;-61
2022/05/17 11:37:04;;;;;;;;;;;;;;;22.41;51.66;101529.44;7288072;19;152039;-61
2022/05/17 11:39:31;;;;;;;;;;;;;;;22.43;51.85;101524.34;7287250;19;152874;-61
2022/05/17 11:42:02;;;;;;;;;;;;;;;22.41;51.62;101519.03;7284864;19;154500;-61
2022/05/17 11:44:39;;;;;;;;;;;;;;;22.41;51.61;101518.19;7294864;19;151888;-60
2022/05/17 11:47:25;;;;;;;;;;;;;;;22.44;51.45;101509.94;7285960;19;153969;-61
2022/05/17 11:49:52;;;;;;;;;;;;;;;22.44;51.67;101517.59;7286625;19;151559;-61
2022/05/17 11:52:21;;;;;;;;;;;;;;;22.44;51.41;101515.59;7283352;19;151506;-61
2022/05/17 11:54:49;;;;;;;;;;;;;;;22.44;51.38;101507.13;7282819;19;152407;-61
2022/05/17 11:57:16;;;;;;;;;;;;;;;22.49;51.18;101490.16;7284927;19;151816;-61
2022/05/17 11:59:45;;;;;;;;;;;;;;;22.44;51.21;101495.88;7286201;19;152519;-61
2022/05/17 12:02:13;;;;;;;;;;;;;;;22.46;51.30;101485.16;7280833;19;153529;-60
2022/05/17 12:04:42;;;;;;;;;;;;;;;22.49;51.40;101487.34;7286509;19;151561;-61
2022/05/17 12:07:18;;;;;;;;;;;;;;;22.47;51.54;101484.00;7290708;19;153447;-61
2022/05/17 12:09:46;;;;;;;;;;;;;;;22.49;51.05;101478.03;7285291;19;152045;-61
2022/05/17 12:12:13;;;;;;;;;;;;;;;22.50;51.33;101474.94;7285940;19;152663;-61
2022/05/17 12:14:47;;;;;;;;;;;;;;;22.50;51.03;101479.72;7284102;19;153451;-61
2022/05/17 12:17:18;;;;;;;;;;;;;;;22.48;51.34;101482.88;7286225;19;151625;-61
2022/05/17 12:19:46;;;;;;;;;;;;;;;22.48;51.28;101479.22;7286129;19;153406;-61
2022/05/17 12:22:18;;;;;;;;;;;;;;;22.47;51.57;101469.09;7283893;19;153668;-61
2022/05/17 12:24:48;;;;;;;;;;;;;;;22.48;51.53;101468.78;7285760;19;151723;-61
2022/05/17 12:27:20;;;;;;;;;;;;;;;22.48;51.32;101467.94;7284856;19;151983;-60
2022/05/17 12:32:20;;;;;;;;;;;;;;;22.47;51.29;101458.66;7284694;19;152733;-61
2022/05/17 12:34:50;;;;;;;;;;;;;;;22.47;51.13;101467.13;7283587;19;152232;-61
2022/05/17 12:37:17;;;;;;;;;;;;;;;22.47;51.22;101464.28;7285419;19;151437;-61
2022/05/17 12:44:50;;;;;;;;;;;;;;;22.44;51.33;101455.63;7282935;19;151634;-61
2022/05/17 12:47:21;;;;;;;;;;;;;;;22.40;51.75;101454.56;7282756;19;153373;-62
2022/05/17 12:49:52;;;;;;;;;;;;;;;22.43;51.65;101456.78;7280160;19;152741;-61
2022/05/17 12:52:22;;;;;;;;;;;;;;;22.39;51.38;101462.19;7292892;19;152099;-61
2022/05/17 12:54:50;;;;;;;;;;;;;;;22.39;51.50;101462.19;7282217;19;153537;-61
2022/05/17 12:57:21;;;;;;;;;;;;;;;22.37;51.61;101474.91;7282174;19;152016;-61
2022/05/17 12:59:49;;;;;;;;;;;;;;;22.32;51.90;101463.72;7282673;19;153455;-60
2022/05/17 13:02:16;;;;;;;;;;;;;;;22.30;51.70;101455.59;7283752;19;153962;-61